Gazpromneft East — UBOF4 — position and weather

sailwx.info

Track history (hours):
 
Tides and Currents Weather Stations Pressure Air Temp Water Temp Dewpoint Dewpoint Depression Visibility Wind Speed Wind Dir Waves Ship Positions

Gazpromneft East

Last reported at 2015-May-05 23:09 UTC. Time now 2015-May-06 00:22 UTC.
Position N 59°56' E 029°46'.

Length 79 m; draft 4.4 m.

Type: Tanker. MMSI: 273335320.

Date/timePositionNaut miles runAvg speedWind from/ knotsBaromVisibWave heightAir tempDewpointWater temp
2015-May-05 23:09N 59°56' E 029°46'0 0.0
2015-May-05 22:32N 59°56' E 029°46'0 0.0
2015-May-05 21:25N 59°56' E 029°46'2 2.5
2015-May-05 20:33N 59°58' E 029°47'10 9.9
2015-May-05 19:33N 59°54' E 030°06'4 4.0
2015-May-05 18:33N 59°54' E 030°14'0 0.0
2015-May-05 17:33N 59°54' E 030°14'0 0.0
2015-May-05 16:33N 59°54' E 030°14'0 0.0
2015-May-05 15:32N 59°54' E 030°14'0 0.0
2015-May-05 14:33N 59°54' E 030°14'1 1.1
2015-May-05 13:33N 59°53' E 030°12'0 0.1
2015-May-05 12:33N 59°53' E 030°12'0 0.0
2015-May-05 11:33N 59°53' E 030°12'0 0.0
2015-May-05 10:33N 59°53' E 030°12'0 0.0
2015-May-05 09:33N 59°53' E 030°12'1 0.8
2015-May-05 08:32N 59°53' E 030°14'0 0.0
2015-May-05 07:33N 59°53' E 030°14'0 0.0
2015-May-05 06:33N 59°53' E 030°14'0 0.0
2015-May-05 05:33N 59°53' E 030°14'0 0.0
2015-May-05 04:33N 59°53' E 030°14'0 0.0
2015-May-05 03:33N 59°53' E 030°14'0 0.0
2015-May-05 02:33N 59°53' E 030°14'0 0.0
2015-May-05 01:33N 59°53' E 030°14'0 0.1
2015-May-05 00:33N 59°53' E 030°13'0 0.0
2015-May-04 23:33N 59°53' E 030°13'0 0.0
2015-May-04 22:33N 59°53' E 030°13'1 0.7
2015-May-04 21:33N 59°54' E 030°13'0 0.0
2015-May-04 20:33N 59°54' E 030°13'0 0.0
2015-May-04 19:33N 59°54' E 030°13'0 0.0
2015-May-04 18:33N 59°54' E 030°13'0 0.0
2015-May-04 17:33N 59°54' E 030°13'0 0.0
2015-May-04 16:33N 59°54' E 030°13'0 0.0
2015-May-04 15:33N 59°54' E 030°13'0 0.0
2015-May-04 14:33N 59°54' E 030°13'1 1.4
2015-May-04 13:33N 59°52' E 030°13'0 0.0
2015-May-04 12:33N 59°52' E 030°13'0 0.0
2015-May-04 11:33N 59°52' E 030°13'0 0.0
2015-May-04 10:33N 59°52' E 030°13'0 0.0
2015-May-04 09:33N 59°52' E 030°13'0 0.0
2015-May-04 08:33N 59°52' E 030°13'0 0.0
2015-May-04 07:32N 59°52' E 030°13'2 2.2
2015-May-04 06:33N 59°53' E 030°09'9 9.2
2015-May-04 05:34N 59°57' E 029°52'3 2.9
2015-May-04 04:27N 59°56' E 029°46'0 0.0
2015-May-04 03:30N 59°56' E 029°46'0 0.0
2015-May-04 02:32N 59°56' E 029°46'0 0.0
2015-May-04 01:26N 59°56' E 029°46'0 0.0
2015-May-04 00:28N 59°56' E 029°46'0 0.0
2015-May-03 23:30N 59°56' E 029°46'0 0.0
2015-May-03 22:30N 59°56' E 029°46'0 0.0
2015-May-03 21:31N 59°56' E 029°46'0 0.0
2015-May-03 20:12N 59°56' E 029°46'0 0.0
2015-May-03 19:25N 59°56' E 029°46'0 0.0
2015-May-03 18:33N 59°56' E 029°46'0 0.0
2015-May-03 17:30N 59°56' E 029°46'0 0.0
2015-May-03 14:15N 59°56' E 029°46'3 4.1
2015-May-03 13:32N 59°59' E 029°46'4 0.1
2015-May-01 10:33N 59°60' E 029°39'1111.2
2015-May-01 09:33N 59°55' E 029°60'7 7.3
2015-May-01 08:34N 59°53' E 030°14'0 0.0
2015-May-01 07:33N 59°53' E 030°14'0 0.0
2015-May-01 06:33N 59°53' E 030°14'0 0.0
2015-May-01 05:33N 59°53' E 030°14'0 0.0
2015-May-01 04:34N 59°53' E 030°14'0 0.0
2015-May-01 03:33N 59°53' E 030°14'0 0.0
2015-May-01 02:33N 59°53' E 030°14'0 0.0
2015-May-01 01:33N 59°53' E 030°14'0 0.0
2015-May-01 00:33N 59°53' E 030°14'0 0.0
2015-Apr-30 23:34N 59°53' E 030°14'0 0.0
2015-Apr-30 22:34N 59°53' E 030°14'0 0.0
2015-Apr-30 21:34N 59°53' E 030°14'0 0.0
2015-Apr-30 20:34N 59°53' E 030°14'0 0.0
2015-Apr-30 19:34N 59°53' E 030°14'0 0.0
2015-Apr-30 18:34N 59°53' E 030°14'0 0.0
2015-Apr-30 17:34N 59°53' E 030°14'0 0.1
2015-Apr-30 16:33N 59°53' E 030°13'0 0.1
2015-Apr-30 15:33N 59°53' E 030°13'0 0.0
2015-Apr-30 14:33N 59°53' E 030°13'0 0.0
2015-Apr-30 13:33N 59°53' E 030°13'0 0.0
2015-Apr-30 12:33N 59°53' E 030°13'0 0.0
2015-Apr-30 11:34N 59°53' E 030°13'0 0.0
2015-Apr-30 10:34N 59°53' E 030°13'0 0.0
2015-Apr-30 09:33N 59°53' E 030°13'0 0.0
2015-Apr-30 08:33N 59°53' E 030°13'0 0.0
2015-Apr-30 07:33N 59°53' E 030°13'0 0.0
2015-Apr-30 06:33N 59°53' E 030°13'0 0.0
2015-Apr-30 05:33N 59°53' E 030°13'0 0.0
2015-Apr-30 04:33N 59°53' E 030°13'4 3.7
2015-Apr-30 03:33N 59°54' E 030°06'1010.0
2015-Apr-30 02:33N 59°58' E 029°48'2 2.0
2015-Apr-30 01:25N 59°56' E 029°46'0 0.0
2015-Apr-29 21:33N 59°56' E 029°46'0 0.0
2015-Apr-29 18:21N 59°56' E 029°46'0 0.0
2015-Apr-29 17:18N 59°56' E 029°46'0 0.0
2015-Apr-29 16:33N 59°56' E 029°46'3 3.4
2015-Apr-29 15:33N 59°59' E 029°45'4 0.2
2015-Apr-28 13:04N 60°00' E 029°37'5 9.6
2015-Apr-28 12:33N 59°59' E 029°46'10 9.8
2015-Apr-28 11:33N 59°55' E 030°04'5 5.0
2015-Apr-28 10:33N 59°53' E 030°13'0 0.1
2015-Apr-28 09:33N 59°53' E 030°14'0 0.0
2015-Apr-28 08:33N 59°53' E 030°14'0 0.0
2015-Apr-28 07:33N 59°53' E 030°14'0 0.0
2015-Apr-28 06:33N 59°53' E 030°14'0 0.0
2015-Apr-28 05:33N 59°53' E 030°14'0 0.0
2015-Apr-28 04:32N 59°53' E 030°14'0 0.0
2015-Apr-28 03:33N 59°53' E 030°14'0 0.0
2015-Apr-28 02:33N 59°53' E 030°14'0 0.0
2015-Apr-28 01:33N 59°53' E 030°14'0 0.1
2015-Apr-28 00:33N 59°53' E 030°13'2 2.1
2015-Apr-27 23:33N 59°55' E 030°15'0 0.0
2015-Apr-27 22:33N 59°55' E 030°15'0 0.0
2015-Apr-27 21:32N 59°55' E 030°15'0 0.0
2015-Apr-27 20:33N 59°55' E 030°15'0 0.0
2015-Apr-27 19:33N 59°55' E 030°15'0 0.0
2015-Apr-27 18:33N 59°55' E 030°15'0 0.0
2015-Apr-27 17:33N 59°55' E 030°15'1 1.3
2015-Apr-27 16:33N 59°54' E 030°13'1 1.5
2015-Apr-27 15:33N 59°53' E 030°12'0 0.0
2015-Apr-27 14:33N 59°53' E 030°12'0 0.0
2015-Apr-27 13:33N 59°53' E 030°12'0 0.0
2015-Apr-27 12:33N 59°53' E 030°12'0 0.0
2015-Apr-27 11:33N 59°53' E 030°12'1 0.7
2015-Apr-27 10:33N 59°53' E 030°13'0 0.0
2015-Apr-27 09:33N 59°53' E 030°13'0 0.0
2015-Apr-27 08:33N 59°53' E 030°13'0 0.0
2015-Apr-27 07:33N 59°53' E 030°13'1 1.2
2015-Apr-27 06:33N 59°53' E 030°11'10 9.7
2015-Apr-27 05:33N 59°57' E 029°53'4 3.6
2015-Apr-27 04:33N 59°56' E 029°46'0 0.0
2015-Apr-27 03:33N 59°56' E 029°46'0 0.0
2015-Apr-27 02:33N 59°56' E 029°46'0 0.0
2015-Apr-27 01:32N 59°56' E 029°46'0 0.0
2015-Apr-27 00:33N 59°56' E 029°46'0 0.0
2015-Apr-26 23:33N 59°56' E 029°46'0 0.0
2015-Apr-26 17:33N 59°56' E 029°47'7 7.0
2015-Apr-26 16:33N 59°55' E 030°00'7 6.9
2015-Apr-26 15:33N 59°53' E 030°13'0 0.0
2015-Apr-26 14:33N 59°53' E 030°13'0 0.0
2015-Apr-26 13:33N 59°53' E 030°13'1 0.9
2015-Apr-26 12:33N 59°53' E 030°12'0 0.1
2015-Apr-26 11:33N 59°53' E 030°12'0 0.0
2015-Apr-26 10:33N 59°53' E 030°12'0 0.0
2015-Apr-26 09:33N 59°53' E 030°12'0 0.4
2015-Apr-26 08:33N 59°53' E 030°11'1 1.1
2015-Apr-26 07:33N 59°53' E 030°13'0 0.0
2015-Apr-26 06:33N 59°53' E 030°13'0 0.0
2015-Apr-26 05:33N 59°53' E 030°13'0 0.0
2015-Apr-26 04:33N 59°53' E 030°13'1 0.7
2015-Apr-26 03:33N 59°53' E 030°12'0 0.0
2015-Apr-26 02:33N 59°53' E 030°12'0 0.0
2015-Apr-26 01:33N 59°53' E 030°12'0 0.0
2015-Apr-26 00:33N 59°53' E 030°12'1 0.7
2015-Apr-25 23:33N 59°53' E 030°13'  
Track history (hours):
 
Tides and Currents Weather Stations Pressure Air Temp Water Temp Dewpoint Dewpoint Depression Visibility Wind Speed Wind Dir Waves Ship Positions

Gazpromneft East

Last reported at 2015-May-05 23:09 UTC. Time now 2015-May-06 00:22 UTC.
Position N 59°56' E 029°46'.

Length 79 m; draft 4.4 m.

Type: Tanker. MMSI: 273335320.

Date/timePositionNaut miles runAvg speedWind from/ knotsBaromVisibWave heightAir tempDewpointWater temp
2015-May-05 23:09N 59°56' E 029°46'0 0.0
2015-May-05 22:32N 59°56' E 029°46'0 0.0
2015-May-05 21:25N 59°56' E 029°46'2 2.5
2015-May-05 20:33N 59°58' E 029°47'10 9.9
2015-May-05 19:33N 59°54' E 030°06'4 4.0
2015-May-05 18:33N 59°54' E 030°14'0 0.0
2015-May-05 17:33N 59°54' E 030°14'0 0.0
2015-May-05 16:33N 59°54' E 030°14'0 0.0
2015-May-05 15:32N 59°54' E 030°14'0 0.0
2015-May-05 14:33N 59°54' E 030°14'1 1.1
2015-May-05 13:33N 59°53' E 030°12'0 0.1
2015-May-05 12:33N 59°53' E 030°12'0 0.0
2015-May-05 11:33N 59°53' E 030°12'0 0.0
2015-May-05 10:33N 59°53' E 030°12'0 0.0
2015-May-05 09:33N 59°53' E 030°12'1 0.8
2015-May-05 08:32N 59°53' E 030°14'0 0.0
2015-May-05 07:33N 59°53' E 030°14'0 0.0
2015-May-05 06:33N 59°53' E 030°14'0 0.0
2015-May-05 05:33N 59°53' E 030°14'0 0.0
2015-May-05 04:33N 59°53' E 030°14'0 0.0
2015-May-05 03:33N 59°53' E 030°14'0 0.0
2015-May-05 02:33N 59°53' E 030°14'0 0.0
2015-May-05 01:33N 59°53' E 030°14'0 0.1
2015-May-05 00:33N 59°53' E 030°13'0 0.0
2015-May-04 23:33N 59°53' E 030°13'0 0.0
2015-May-04 22:33N 59°53' E 030°13'1 0.7
2015-May-04 21:33N 59°54' E 030°13'0 0.0
2015-May-04 20:33N 59°54' E 030°13'0 0.0
2015-May-04 19:33N 59°54' E 030°13'0 0.0
2015-May-04 18:33N 59°54' E 030°13'0 0.0
2015-May-04 17:33N 59°54' E 030°13'0 0.0
2015-May-04 16:33N 59°54' E 030°13'0 0.0
2015-May-04 15:33N 59°54' E 030°13'0 0.0
2015-May-04 14:33N 59°54' E 030°13'1 1.4
2015-May-04 13:33N 59°52' E 030°13'0 0.0
2015-May-04 12:33N 59°52' E 030°13'0 0.0
2015-May-04 11:33N 59°52' E 030°13'0 0.0
2015-May-04 10:33N 59°52' E 030°13'0 0.0
2015-May-04 09:33N 59°52' E 030°13'0 0.0
2015-May-04 08:33N 59°52' E 030°13'0 0.0
2015-May-04 07:32N 59°52' E 030°13'2 2.2
2015-May-04 06:33N 59°53' E 030°09'9 9.2
2015-May-04 05:34N 59°57' E 029°52'3 2.9
2015-May-04 04:27N 59°56' E 029°46'0 0.0
2015-May-04 03:30N 59°56' E 029°46'0 0.0
2015-May-04 02:32N 59°56' E 029°46'0 0.0
2015-May-04 01:26N 59°56' E 029°46'0 0.0
2015-May-04 00:28N 59°56' E 029°46'0 0.0
2015-May-03 23:30N 59°56' E 029°46'0 0.0
2015-May-03 22:30N 59°56' E 029°46'0 0.0
2015-May-03 21:31N 59°56' E 029°46'0 0.0
2015-May-03 20:12N 59°56' E 029°46'0 0.0
2015-May-03 19:25N 59°56' E 029°46'0 0.0
2015-May-03 18:33N 59°56' E 029°46'0 0.0
2015-May-03 17:30N 59°56' E 029°46'0 0.0
2015-May-03 14:15N 59°56' E 029°46'3 4.1
2015-May-03 13:32N 59°59' E 029°46'4 0.1
2015-May-01 10:33N 59°60' E 029°39'1111.2
2015-May-01 09:33N 59°55' E 029°60'7 7.3
2015-May-01 08:34N 59°53' E 030°14'0 0.0
2015-May-01 07:33N 59°53' E 030°14'0 0.0
2015-May-01 06:33N 59°53' E 030°14'0 0.0
2015-May-01 05:33N 59°53' E 030°14'0 0.0
2015-May-01 04:34N 59°53' E 030°14'0 0.0
2015-May-01 03:33N 59°53' E 030°14'0 0.0
2015-May-01 02:33N 59°53' E 030°14'0 0.0
2015-May-01 01:33N 59°53' E 030°14'0 0.0
2015-May-01 00:33N 59°53' E 030°14'0 0.0
2015-Apr-30 23:34N 59°53' E 030°14'0 0.0
2015-Apr-30 22:34N 59°53' E 030°14'0 0.0
2015-Apr-30 21:34N 59°53' E 030°14'0 0.0
2015-Apr-30 20:34N 59°53' E 030°14'0 0.0
2015-Apr-30 19:34N 59°53' E 030°14'0 0.0
2015-Apr-30 18:34N 59°53' E 030°14'0 0.0
2015-Apr-30 17:34N 59°53' E 030°14'0 0.1
2015-Apr-30 16:33N 59°53' E 030°13'0 0.1
2015-Apr-30 15:33N 59°53' E 030°13'0 0.0
2015-Apr-30 14:33N 59°53' E 030°13'0 0.0
2015-Apr-30 13:33N 59°53' E 030°13'0 0.0
2015-Apr-30 12:33N 59°53' E 030°13'0 0.0
2015-Apr-30 11:34N 59°53' E 030°13'0 0.0
2015-Apr-30 10:34N 59°53' E 030°13'0 0.0
2015-Apr-30 09:33N 59°53' E 030°13'0 0.0
2015-Apr-30 08:33N 59°53' E 030°13'0 0.0
2015-Apr-30 07:33N 59°53' E 030°13'0 0.0
2015-Apr-30 06:33N 59°53' E 030°13'0 0.0
2015-Apr-30 05:33N 59°53' E 030°13'0 0.0
2015-Apr-30 04:33N 59°53' E 030°13'4 3.7
2015-Apr-30 03:33N 59°54' E 030°06'1010.0
2015-Apr-30 02:33N 59°58' E 029°48'2 2.0
2015-Apr-30 01:25N 59°56' E 029°46'0 0.0
2015-Apr-29 21:33N 59°56' E 029°46'0 0.0
2015-Apr-29 18:21N 59°56' E 029°46'0 0.0
2015-Apr-29 17:18N 59°56' E 029°46'0 0.0
2015-Apr-29 16:33N 59°56' E 029°46'3 3.4
2015-Apr-29 15:33N 59°59' E 029°45'4 0.2
2015-Apr-28 13:04N 60°00' E 029°37'5 9.6
2015-Apr-28 12:33N 59°59' E 029°46'10 9.8
2015-Apr-28 11:33N 59°55' E 030°04'5 5.0
2015-Apr-28 10:33N 59°53' E 030°13'0 0.1
2015-Apr-28 09:33N 59°53' E 030°14'0 0.0
2015-Apr-28 08:33N 59°53' E 030°14'0 0.0
2015-Apr-28 07:33N 59°53' E 030°14'0 0.0
2015-Apr-28 06:33N 59°53' E 030°14'0 0.0
2015-Apr-28 05:33N 59°53' E 030°14'0 0.0
2015-Apr-28 04:32N 59°53' E 030°14'0 0.0
2015-Apr-28 03:33N 59°53' E 030°14'0 0.0
2015-Apr-28 02:33N 59°53' E 030°14'0 0.0
2015-Apr-28 01:33N 59°53' E 030°14'0 0.1
2015-Apr-28 00:33N 59°53' E 030°13'2 2.1
2015-Apr-27 23:33N 59°55' E 030°15'0 0.0
2015-Apr-27 22:33N 59°55' E 030°15'0 0.0
2015-Apr-27 21:32N 59°55' E 030°15'0 0.0
2015-Apr-27 20:33N 59°55' E 030°15'0 0.0
2015-Apr-27 19:33N 59°55' E 030°15'0 0.0
2015-Apr-27 18:33N 59°55' E 030°15'0 0.0
2015-Apr-27 17:33N 59°55' E 030°15'1 1.3
2015-Apr-27 16:33N 59°54' E 030°13'1 1.5
2015-Apr-27 15:33N 59°53' E 030°12'0 0.0
2015-Apr-27 14:33N 59°53' E 030°12'0 0.0
2015-Apr-27 13:33N 59°53' E 030°12'0 0.0
2015-Apr-27 12:33N 59°53' E 030°12'0 0.0
2015-Apr-27 11:33N 59°53' E 030°12'1 0.7
2015-Apr-27 10:33N 59°53' E 030°13'0 0.0
2015-Apr-27 09:33N 59°53' E 030°13'0 0.0
2015-Apr-27 08:33N 59°53' E 030°13'0 0.0
2015-Apr-27 07:33N 59°53' E 030°13'1 1.2
2015-Apr-27 06:33N 59°53' E 030°11'10 9.7
2015-Apr-27 05:33N 59°57' E 029°53'4 3.6
2015-Apr-27 04:33N 59°56' E 029°46'0 0.0
2015-Apr-27 03:33N 59°56' E 029°46'0 0.0
2015-Apr-27 02:33N 59°56' E 029°46'0 0.0
2015-Apr-27 01:32N 59°56' E 029°46'0 0.0
2015-Apr-27 00:33N 59°56' E 029°46'0 0.0
2015-Apr-26 23:33N 59°56' E 029°46'0 0.0
2015-Apr-26 17:33N 59°56' E 029°47'7 7.0
2015-Apr-26 16:33N 59°55' E 030°00'7 6.9
2015-Apr-26 15:33N 59°53' E 030°13'0 0.0
2015-Apr-26 14:33N 59°53' E 030°13'0 0.0
2015-Apr-26 13:33N 59°53' E 030°13'1 0.9
2015-Apr-26 12:33N 59°53' E 030°12'0 0.1
2015-Apr-26 11:33N 59°53' E 030°12'0 0.0
2015-Apr-26 10:33N 59°53' E 030°12'0 0.0
2015-Apr-26 09:33N 59°53' E 030°12'0 0.4
2015-Apr-26 08:33N 59°53' E 030°11'1 1.1
2015-Apr-26 07:33N 59°53' E 030°13'0 0.0
2015-Apr-26 06:33N 59°53' E 030°13'0 0.0
2015-Apr-26 05:33N 59°53' E 030°13'0 0.0
2015-Apr-26 04:33N 59°53' E 030°13'1 0.7
2015-Apr-26 03:33N 59°53' E 030°12'0 0.0
2015-Apr-26 02:33N 59°53' E 030°12'0 0.0
2015-Apr-26 01:33N 59°53' E 030°12'0 0.0
2015-Apr-26 00:33N 59°53' E 030°12'1 0.7
2015-Apr-25 23:33N 59°53' E 030°13'  

Dump ship's entire track history